Time;durP1;ratioP1;P1;durP2;ratioP2;P2;SDS_P1;SDS_P2;PMS_P1;PMS_P2;Temp;Humidity;BMP_temperature;BMP_pressure;BME280_temperature;BME280_humidity;BME280_pressure;Samples;Min_cycle;Max_cycle;Signal;HPM_P1;HPM_P2
2021/01/16 00:00:24;;;;;;;8.67;5.60;;;3.10;99.90;;;;;;5013291;28;20644;-77
2021/01/16 00:02:50;;;;;;;7.20;5.53;;;3.10;99.90;;;;;;5012817;28;20309;-74
2021/01/16 00:05:18;;;;;;;6.63;5.83;;;3.00;99.90;;;;;;5013657;28;20207;-75
2021/01/16 00:07:46;;;;;;;8.27;6.23;;;3.00;99.90;;;;;;5013828;28;20208;-78
2021/01/16 00:10:16;;;;;;;7.33;6.40;;;2.90;99.90;;;;;;5017988;28;20594;-77
2021/01/16 00:12:48;;;;;;;6.53;5.87;;;2.80;99.90;;;;;;5021683;28;20255;-75
2021/01/16 00:15:15;;;;;;;6.70;4.97;;;2.80;99.90;;;;;;5012621;28;20204;-77
2021/01/16 00:17:42;;;;;;;8.40;5.83;;;2.80;99.90;;;;;;5012762;28;20208;-78
2021/01/16 00:20:10;;;;;;;9.27;6.23;;;2.80;99.90;;;;;;5012587;28;20204;-77
2021/01/16 00:22:46;;;;;;;9.47;6.03;;;2.80;99.90;;;;;;5013073;28;20235;-76
2021/01/16 00:25:14;;;;;;;6.80;5.80;;;2.80;99.90;;;;;;5012771;28;20211;-75
2021/01/16 00:27:40;;;;;;;12.03;6.80;;;2.70;99.90;;;;;;5012601;28;20211;-76
2021/01/16 00:30:08;;;;;;;10.17;6.77;;;2.80;99.90;;;;;;5012181;28;20212;-77
2021/01/16 00:32:35;;;;;;;9.80;6.70;;;2.80;99.90;;;;;;5012786;28;20211;-77
2021/01/16 00:35:04;;;;;;;9.27;6.00;;;2.80;99.90;;;;;;5012582;28;20208;-77
2021/01/16 00:37:30;;;;;;;9.00;6.87;;;2.80;99.90;;;;;;5012445;28;20204;-75
2021/01/16 00:39:57;;;;;;;11.27;7.90;;;2.70;99.90;;;;;;5012182;28;20730;-76
2021/01/16 00:42:24;;;;;;;12.37;8.43;;;2.60;99.90;;;;;;5011908;28;20232;-76
2021/01/16 00:44:51;;;;;;;13.70;10.50;;;2.70;99.90;;;;;;5011959;28;20611;-73
2021/01/16 00:47:17;;;;;;;17.23;12.40;;;2.70;99.90;;;;;;5012177;28;20212;-71
2021/01/16 00:49:43;;;;;;;13.73;10.37;;;2.60;99.90;;;;;;5012835;28;20294;-73
2021/01/16 00:52:10;;;;;;;10.63;7.73;;;2.50;99.90;;;;;;5012081;28;20595;-73
2021/01/16 00:54:36;;;;;;;10.70;7.33;;;2.40;99.90;;;;;;5012346;28;20577;-75
2021/01/16 00:57:03;;;;;;;8.53;6.30;;;2.30;99.90;;;;;;5011438;28;20224;-74
2021/01/16 00:59:30;;;;;;;10.17;7.07;;;2.30;99.90;;;;;;5012085;28;20212;-73
2021/01/16 01:01:56;;;;;;;10.37;7.60;;;2.30;99.90;;;;;;5011721;28;20242;-81
2021/01/16 01:04:23;;;;;;;9.70;7.10;;;2.30;99.90;;;;;;5012222;28;20215;-80
2021/01/16 01:06:49;;;;;;;13.17;7.87;;;2.20;99.90;;;;;;5012165;28;20208;-80
2021/01/16 01:09:16;;;;;;;10.20;7.23;;;2.20;99.90;;;;;;5012607;28;20208;-78
2021/01/16 01:11:42;;;;;;;8.10;6.43;;;2.30;99.90;;;;;;5011996;28;20671;-80
2021/01/16 01:14:09;;;;;;;6.67;5.53;;;2.40;99.90;;;;;;5011721;28;20262;-77
2021/01/16 01:16:36;;;;;;;8.93;6.50;;;2.50;99.90;;;;;;5011955;28;20261;-77
2021/01/16 01:19:02;;;;;;;8.67;6.67;;;2.50;99.90;;;;;;5011498;28;20707;-79
2021/01/16 01:21:29;;;;;;;6.80;5.90;;;2.50;99.90;;;;;;5011839;28;20228;-79
2021/01/16 01:23:55;;;;;;;10.03;6.73;;;2.40;99.90;;;;;;5011318;28;20598;-79
2021/01/16 01:26:22;;;;;;;9.23;7.00;;;2.40;99.90;;;;;;5011618;28;20672;-80
2021/01/16 01:28:48;;;;;;;8.80;6.80;;;2.40;99.90;;;;;;5011436;28;20204;-79
2021/01/16 01:31:14;;;;;;;8.87;6.50;;;2.40;99.90;;;;;;5011974;28;20266;-78
2021/01/16 01:33:42;;;;;;;11.40;6.60;;;2.40;99.90;;;;;;5011805;28;20216;-82
2021/01/16 01:36:08;;;;;;;8.00;6.00;;;2.30;99.90;;;;;;5011488;28;20208;-80
2021/01/16 01:38:35;;;;;;;8.70;5.73;;;2.30;99.90;;;;;;5011402;28;20235;-77
2021/01/16 01:41:02;;;;;;;7.77;5.40;;;2.30;99.90;;;;;;5011205;28;20231;-79
2021/01/16 01:43:28;;;;;;;8.43;6.43;;;2.30;99.90;;;;;;5011700;28;20222;-78
2021/01/16 01:45:55;;;;;;;8.20;6.87;;;2.30;99.90;;;;;;5011064;28;20205;-78
2021/01/16 01:48:22;;;;;;;9.20;6.63;;;2.40;99.90;;;;;;5011468;28;20274;-79
2021/01/16 01:50:50;;;;;;;10.33;6.93;;;2.50;99.90;;;;;;5011276;28;20212;-77
2021/01/16 01:53:19;;;;;;;8.63;6.23;;;2.50;99.90;;;;;;5011150;28;20216;-72
2021/01/16 01:55:50;;;;;;;8.67;6.13;;;2.50;99.90;;;;;;5011427;28;20226;-74
2021/01/16 01:58:18;;;;;;;7.80;5.73;;;2.50;99.90;;;;;;5011464;28;20208;-72
2021/01/16 02:00:46;;;;;;;7.77;6.57;;;2.50;99.90;;;;;;5011662;28;20231;-79
2021/01/16 02:03:15;;;;;;;7.70;6.20;;;2.50;99.90;;;;;;5010948;28;20212;-78
2021/01/16 02:05:42;;;;;;;9.47;6.57;;;2.40;99.90;;;;;;5011137;28;20219;-78
2021/01/16 02:08:09;;;;;;;7.67;6.33;;;2.40;99.90;;;;;;5010546;28;20208;-77
2021/01/16 02:10:36;;;;;;;8.00;6.63;;;2.30;99.90;;;;;;5011064;28;20638;-76
2021/01/16 02:13:02;;;;;;;9.40;6.83;;;2.30;99.90;;;;;;5010706;28;20212;-75
2021/01/16 02:15:37;;;;;;;10.93;7.50;;;2.30;99.90;;;;;;5011057;28;20615;-78
2021/01/16 02:18:10;;;;;;;9.70;7.93;;;2.20;99.90;;;;;;5010648;28;20208;-77
2021/01/16 02:20:38;;;;;;;9.13;6.90;;;2.20;99.90;;;;;;4997506;28;20623;-74
2021/01/16 02:23:23;;;;;;;8.17;6.67;;;2.20;99.90;;;;;;5010266;28;20695;-75
2021/01/16 02:26:07;;;;;;;12.07;6.33;;;2.20;99.90;;;;;;4991049;28;20211;-76
2021/01/16 02:28:40;;;;;;;11.33;8.10;;;2.20;99.90;;;;;;5010749;28;20227;-76
2021/01/16 02:31:08;;;;;;;10.00;6.57;;;2.10;99.90;;;;;;5010308;28;20226;-74
2021/01/16 02:33:37;;;;;;;7.33;6.50;;;2.20;99.90;;;;;;5010854;28;20219;-77
2021/01/16 02:36:12;;;;;;;8.93;6.90;;;2.10;99.90;;;;;;5010574;28;20215;-81
2021/01/16 02:38:46;;;;;;;9.23;7.53;;;2.20;99.90;;;;;;5010433;28;20204;-79
2021/01/16 02:41:29;;;;;;;9.43;7.17;;;2.20;99.90;;;;;;5016631;28;20251;-80
2021/01/16 02:44:10;;;;;;;7.37;6.20;;;2.10;99.90;;;;;;5016862;28;20586;-79
2021/01/16 02:46:38;;;;;;;8.03;6.27;;;2.10;99.90;;;;;;5017424;28;20204;-78
2021/01/16 02:49:13;;;;;;;7.53;5.63;;;2.00;99.90;;;;;;5016533;28;20596;-78
2021/01/16 02:51:52;;;;;;;8.93;7.27;;;2.00;99.90;;;;;;5017138;28;20274;-75
2021/01/16 02:54:18;;;;;;;8.90;7.03;;;1.90;99.90;;;;;;5017326;28;20237;-80
2021/01/16 02:56:46;;;;;;;10.77;7.93;;;1.90;99.90;;;;;;5017152;28;20697;-76
2021/01/16 02:59:14;;;;;;;9.70;7.50;;;1.90;99.90;;;;;;5016916;28;20220;-72
2021/01/16 03:01:40;;;;;;;10.93;8.87;;;1.90;99.90;;;;;;5016841;28;20227;-78
2021/01/16 03:04:07;;;;;;;15.97;8.57;;;1.80;99.90;;;;;;5016871;28;20216;-75
2021/01/16 03:06:37;;;;;;;10.63;7.40;;;1.70;99.90;;;;;;5016751;28;20208;-76
2021/01/16 03:09:05;;;;;;;9.83;7.17;;;1.70;99.90;;;;;;5016793;28;20215;-75
2021/01/16 03:11:33;;;;;;;11.57;8.10;;;1.70;99.90;;;;;;5017002;28;20309;-74
2021/01/16 03:14:04;;;;;;;10.23;7.27;;;1.70;99.90;;;;;;5016674;28;20250;-78
2021/01/16 03:16:38;;;;;;;10.10;7.60;;;1.70;99.90;;;;;;5016647;28;20208;-76
2021/01/16 03:19:08;;;;;;;10.77;8.40;;;1.60;99.90;;;;;;5014754;28;20211;-75
2021/01/16 03:21:39;;;;;;;9.93;7.07;;;1.60;99.90;;;;;;5016387;28;20342;-75
2021/01/16 03:24:07;;;;;;;10.53;7.37;;;1.50;99.90;;;;;;5016566;28;20219;-75
2021/01/16 03:26:34;;;;;;;11.23;8.03;;;1.50;99.90;;;;;;5016545;28;20212;-77
2021/01/16 03:29:01;;;;;;;11.30;8.17;;;1.40;99.90;;;;;;5016354;28;20204;-77
2021/01/16 03:31:27;;;;;;;12.03;8.17;;;1.40;99.90;;;;;;5017021;28;20211;-77
2021/01/16 03:33:54;;;;;;;11.87;8.50;;;1.40;99.90;;;;;;5016326;28;20212;-77
2021/01/16 03:36:21;;;;;;;18.07;9.33;;;1.30;99.90;;;;;;5016550;28;20261;-74
2021/01/16 03:38:47;;;;;;;10.83;8.03;;;1.30;99.90;;;;;;5016912;28;20208;-76
2021/01/16 03:41:14;;;;;;;15.67;9.00;;;1.30;99.90;;;;;;5016402;28;20309;-77
2021/01/16 03:43:40;;;;;;;10.20;8.30;;;1.30;99.90;;;;;;5016847;28;20258;-77
2021/01/16 03:46:07;;;;;;;14.53;9.47;;;1.30;99.90;;;;;;5016252;28;20582;-76
2021/01/16 03:48:35;;;;;;;12.57;8.37;;;1.30;99.90;;;;;;5016943;28;20214;-77
2021/01/16 03:51:02;;;;;;;11.83;9.20;;;1.20;99.90;;;;;;5014153;28;20302;-78
2021/01/16 03:53:29;;;;;;;12.23;8.77;;;1.20;99.90;;;;;;5013192;28;20208;-80
2021/01/16 03:55:55;;;;;;;13.77;8.97;;;1.20;99.90;;;;;;5012925;28;20619;-76
2021/01/16 03:58:21;;;;;;;13.17;9.33;;;1.20;99.90;;;;;;5013547;28;20207;-80
2021/01/16 04:00:48;;;;;;;10.97;8.40;;;1.20;99.90;;;;;;5013613;28;20586;-80
2021/01/16 04:03:14;;;;;;;10.77;8.50;;;1.10;99.90;;;;;;5013740;28;20206;-84
2021/01/16 04:05:41;;;;;;;13.07;8.53;;;1.00;99.90;;;;;;5013837;28;20235;-84
2021/01/16 04:08:08;;;;;;;12.93;8.80;;;1.10;99.90;;;;;;5013200;28;20209;-84
2021/01/16 04:10:35;;;;;;;12.37;9.80;;;1.10;99.90;;;;;;5013784;28;20254;-82
2021/01/16 04:13:01;;;;;;;15.03;9.87;;;1.10;99.90;;;;;;5013140;28;20688;-84
2021/01/16 04:15:27;;;;;;;13.77;11.07;;;1.00;99.90;;;;;;5013399;28;20628;-74
2021/01/16 04:17:54;;;;;;;17.33;10.90;;;1.10;99.90;;;;;;5012877;28;20208;-73
2021/01/16 04:20:20;;;;;;;20.83;14.83;;;1.10;99.90;;;;;;5012772;28;20254;-72
2021/01/16 04:22:50;;;;;;;16.87;12.60;;;1.00;99.90;;;;;;5012869;28;20236;-74
2021/01/16 04:25:18;;;;;;;20.23;14.20;;;1.00;99.90;;;;;;5012611;28;20211;-70
2021/01/16 04:27:44;;;;;;;17.20;12.50;;;1.00;99.90;;;;;;5013406;28;20205;-74
2021/01/16 04:30:12;;;;;;;17.53;12.47;;;1.00;99.90;;;;;;5012369;28;20219;-74
2021/01/16 04:32:38;;;;;;;21.87;12.50;;;1.00;99.90;;;;;;5012669;28;20712;-75
2021/01/16 04:35:06;;;;;;;15.80;12.23;;;0.90;99.90;;;;;;5012180;28;20209;-73
2021/01/16 04:37:32;;;;;;;14.87;11.23;;;1.00;99.90;;;;;;5012475;28;20204;-74
2021/01/16 04:39:58;;;;;;;15.67;10.47;;;0.90;99.90;;;;;;5012266;28;20219;-75
2021/01/16 04:42:27;;;;;;;15.83;9.83;;;1.00;99.90;;;;;;5012504;28;20263;-79
2021/01/16 04:44:59;;;;;;;17.40;11.47;;;1.00;99.90;;;;;;5012067;28;20262;-75
2021/01/16 04:47:28;;;;;;;14.77;9.67;;;1.00;99.90;;;;;;5012204;28;20324;-75
2021/01/16 04:49:58;;;;;;;13.33;9.87;;;1.00;99.90;;;;;;5014854;28;20208;-78
2021/01/16 04:52:28;;;;;;;11.03;8.83;;;1.00;99.90;;;;;;5013111;28;20762;-74
2021/01/16 04:54:56;;;;;;;12.73;8.60;;;1.00;99.90;;;;;;5012158;28;20205;-78
2021/01/16 04:57:24;;;;;;;12.87;9.23;;;0.90;99.90;;;;;;5011732;28;20255;-76
2021/01/16 04:59:53;;;;;;;11.50;8.70;;;0.90;99.90;;;;;;5012293;28;20311;-78
2021/01/16 05:02:23;;;;;;;11.80;8.37;;;0.90;99.90;;;;;;5011629;28;20266;-77
2021/01/16 05:04:51;;;;;;;13.10;9.53;;;0.90;99.90;;;;;;5011764;28;20215;-75
2021/01/16 05:07:19;;;;;;;12.50;9.03;;;0.80;99.90;;;;;;5011880;28;20223;-75
2021/01/16 05:09:46;;;;;;;13.43;8.83;;;0.70;99.90;;;;;;5012004;28;20208;-78
2021/01/16 05:12:42;;;;;;;13.53;9.17;;;0.70;99.90;;;;;;5011891;28;20212;-78
2021/01/16 05:15:19;;;;;;;13.50;8.07;;;0.80;99.90;;;;;;5006740;28;20590;-78
2021/01/16 05:17:50;;;;;;;15.60;9.43;;;0.70;99.90;;;;;;5011843;28;20258;-77
2021/01/16 05:20:17;;;;;;;12.97;8.10;;;0.70;99.90;;;;;;5012044;28;20772;-80
2021/01/16 05:22:43;;;;;;;14.90;10.17;;;0.60;99.90;;;;;;5012033;28;20278;-76
2021/01/16 05:25:11;;;;;;;14.80;9.33;;;0.60;99.90;;;;;;5011044;28;20204;-77
2021/01/16 05:27:38;;;;;;;14.23;10.67;;;0.60;99.90;;;;;;5011528;28;20684;-77
2021/01/16 05:30:07;;;;;;;15.77;10.93;;;0.60;99.90;;;;;;5011140;28;20204;-78
2021/01/16 05:32:35;;;;;;;16.20;10.43;;;0.70;99.90;;;;;;4999193;28;20204;-75
2021/01/16 05:35:13;;;;;;;14.87;11.20;;;0.70;99.90;;;;;;5010827;28;20212;-74
2021/01/16 05:37:42;;;;;;;14.23;11.47;;;0.60;99.90;;;;;;5011721;28;20210;-77
2021/01/16 05:40:10;;;;;;;16.27;10.27;;;0.40;99.90;;;;;;5010884;28;20212;-76
2021/01/16 05:42:38;;;;;;;15.40;10.93;;;0.50;99.90;;;;;;5011348;28;20236;-77
2021/01/16 05:45:07;;;;;;;13.60;11.30;;;0.50;99.90;;;;;;5010896;28;20215;-79
2021/01/16 05:47:35;;;;;;;16.17;10.30;;;0.50;99.90;;;;;;5010893;28;20589;-76
2021/01/16 05:50:03;;;;;;;12.63;9.23;;;0.40;99.90;;;;;;5011290;28;20215;-78
2021/01/16 05:52:30;;;;;;;15.17;10.73;;;0.40;99.90;;;;;;5011212;28;20204;-78
2021/01/16 05:55:00;;;;;;;15.13;9.33;;;0.40;99.90;;;;;;5010708;28;20580;-71
2021/01/16 05:57:27;;;;;;;16.03;9.23;;;0.50;99.90;;;;;;5006437;28;20255;-77
2021/01/16 05:59:59;;;;;;;18.00;10.63;;;0.40;99.90;;;;;;5010178;28;20219;-79
2021/01/16 06:02:31;;;;;;;16.33;10.40;;;0.40;99.90;;;;;;5005093;28;20236;-77
2021/01/16 06:04:59;;;;;;;14.20;9.77;;;0.50;99.90;;;;;;5004249;28;20668;-77
2021/01/16 06:07:27;;;;;;;13.27;10.37;;;0.40;99.90;;;;;;5004371;28;20258;-78
2021/01/16 06:09:55;;;;;;;13.00;9.57;;;0.40;99.90;;;;;;5010952;28;20259;-77
2021/01/16 06:12:22;;;;;;;13.63;9.77;;;0.30;99.90;;;;;;5010912;28;20204;-75
2021/01/16 06:14:50;;;;;;;14.30;9.37;;;0.30;99.90;;;;;;5010034;28;20204;-78
2021/01/16 06:17:18;;;;;;;13.97;10.83;;;0.20;99.90;;;;;;5010507;28;20204;-77
2021/01/16 06:19:47;;;;;;;20.63;11.97;;;0.20;99.90;;;;;;5010744;28;20580;-78
2021/01/16 06:22:15;;;;;;;20.63;12.13;;;0.30;99.90;;;;;;5011062;28;20290;-76
2021/01/16 06:24:47;;;;;;;18.37;12.13;;;0.40;99.90;;;;;;5010904;28;20204;-77
2021/01/16 06:27:22;;;;;;;20.67;11.77;;;0.30;99.90;;;;;;5010102;28;20208;-76
2021/01/16 06:29:56;;;;;;;23.10;12.67;;;0.30;99.90;;;;;;5010883;28;20695;-72
2021/01/16 06:32:24;;;;;;;19.83;10.87;;;0.20;99.90;;;;;;5010567;28;20204;-77
2021/01/16 06:35:06;;;;;;;17.50;11.37;;;0.20;99.90;;;;;;5011171;28;20586;-76
2021/01/16 06:37:41;;;;;;;15.57;11.07;;;0.10;99.90;;;;;;5009559;28;20199;-74
2021/01/16 06:40:09;;;;;;;18.83;11.73;;;0.20;99.90;;;;;;5010088;28;20203;-73
2021/01/16 06:42:37;;;;;;;16.77;11.27;;;0.20;99.90;;;;;;5010355;28;20645;-74
2021/01/16 06:45:06;;;;;;;15.47;11.57;;;0.30;99.90;;;;;;5009868;28;20679;-79
2021/01/16 06:47:34;;;;;;;18.67;11.63;;;0.20;99.90;;;;;;5010137;28;20208;-79
2021/01/16 06:50:01;;;;;;;19.67;12.40;;;0.30;99.90;;;;;;5009613;28;20215;-81
2021/01/16 06:52:40;;;;;;;18.97;13.23;;;0.20;99.90;;;;;;5009913;28;20702;-80
2021/01/16 06:55:08;;;;;;;15.70;11.30;;;0.10;99.90;;;;;;5009903;28;20212;-80
2021/01/16 06:57:35;;;;;;;21.23;12.97;;;0.10;99.90;;;;;;5009843;28;20613;-79
2021/01/16 07:00:05;;;;;;;23.27;14.37;;;0.10;99.90;;;;;;5010435;28;20690;-83
2021/01/16 07:02:33;;;;;;;21.70;14.00;;;0.30;99.90;;;;;;5010494;28;20235;-80
2021/01/16 07:05:01;;;;;;;20.33;12.83;;;0.20;99.90;;;;;;5010416;28;20208;-76
2021/01/16 07:07:30;;;;;;;25.10;13.90;;;0.30;99.90;;;;;;5010565;28;20204;-76
2021/01/16 07:09:59;;;;;;;23.33;14.97;;;0.30;99.90;;;;;;5010141;28;20208;-81
2021/01/16 07:12:25;;;;;;;22.77;15.47;;;0.20;99.90;;;;;;5010407;28;20215;-74
2021/01/16 07:14:52;;;;;;;19.33;13.03;;;0.20;99.90;;;;;;5010256;28;20262;-77
2021/01/16 07:17:21;;;;;;;21.87;14.70;;;0.10;99.90;;;;;;5010343;28;20672;-77
2021/01/16 07:19:47;;;;;;;17.47;12.33;;;0.20;99.90;;;;;;5010555;28;20204;-75
2021/01/16 07:22:14;;;;;;;17.30;11.37;;;0.30;99.90;;;;;;5009741;28;20251;-75
2021/01/16 07:24:41;;;;;;;20.00;16.63;;;0.30;99.90;;;;;;5009860;28;20684;-77
2021/01/16 07:27:10;;;;;;;27.97;15.03;;;0.20;99.90;;;;;;5012286;28;20200;-77
2021/01/16 07:29:41;;;;;;;21.67;14.70;;;0.20;99.90;;;;;;5014096;28;20598;-75
2021/01/16 07:32:15;;;;;;;26.47;17.77;;;0.20;99.90;;;;;;5013567;28;20205;-73
2021/01/16 07:34:46;;;;;;;28.13;17.90;;;0.30;99.90;;;;;;5014152;28;20203;-78
2021/01/16 07:37:14;;;;;;;27.77;18.57;;;0.30;99.90;;;;;;5013593;28;20211;-76
2021/01/16 07:39:43;;;;;;;32.97;17.47;;;0.30;99.90;;;;;;5013996;28;20231;-77
2021/01/16 07:42:12;;;;;;;25.07;17.73;;;0.30;99.90;;;;;;5013092;28;20715;-78
2021/01/16 07:44:44;;;;;;;25.47;15.80;;;0.40;99.90;;;;;;5014040;28;20299;-77
2021/01/16 07:47:23;;;;;;;21.57;13.73;;;0.30;99.90;;;;;;5013234;28;20601;-78
2021/01/16 07:49:56;;;;;;;21.00;14.13;;;0.30;99.90;;;;;;5014316;28;20208;-77
2021/01/16 07:52:27;;;;;;;22.17;12.73;;;0.20;99.90;;;;;;5013475;28;20254;-77
2021/01/16 07:55:06;;;;;;;17.57;13.20;;;0.40;99.90;;;;;;5012493;28;20270;-76
2021/01/16 07:57:34;;;;;;;19.00;13.77;;;0.60;99.90;;;;;;5012540;28;20204;-75
2021/01/16 08:00:08;;;;;;;21.43;13.27;;;0.60;99.90;;;;;;5012865;28;20212;-75
2021/01/16 08:03:01;;;;;;;17.97;12.37;;;1.30;99.90;;;;;;5013222;28;20238;-75
2021/01/16 08:05:38;;;;;;;25.03;15.70;;;1.40;99.90;;;;;;5013304;28;20212;-76
2021/01/16 08:08:31;;;;;;;25.90;15.93;;;1.40;99.90;;;;;;5012622;28;20215;-75
2021/01/16 08:11:01;;;;;;;109.20;59.83;;;1.70;99.90;;;;;;5011103;28;20200;-76
2021/01/16 08:13:28;;;;;;;50.03;31.10;;;1.70;99.90;;;;;;5010331;28;20207;-76
2021/01/16 08:16:03;;;;;;;25.67;18.20;;;1.50;99.90;;;;;;5005496;28;20212;-74
2021/01/16 08:18:34;;;;;;;20.73;14.43;;;1.50;99.90;;;;;;5006660;28;20273;-77
2021/01/16 08:21:07;;;;;;;21.50;14.87;;;1.50;99.90;;;;;;5003306;28;20213;-75
2021/01/16 08:23:46;;;;;;;17.20;12.77;;;1.50;99.90;;;;;;5011034;28;20246;-77
2021/01/16 08:26:13;;;;;;;20.30;12.77;;;1.60;99.90;;;;;;5012357;28;20208;-77
2021/01/16 08:28:44;;;;;;;16.00;11.63;;;1.80;99.90;;;;;;5012760;28;20212;-76
2021/01/16 08:31:24;;;;;;;16.63;12.33;;;2.00;99.90;;;;;;5011057;28;20208;-75
2021/01/16 08:33:51;;;;;;;20.47;13.73;;;2.50;99.90;;;;;;5012963;28;20257;-79
2021/01/16 08:36:19;;;;;;;23.50;15.27;;;2.30;99.90;;;;;;5010620;28;20214;-76
2021/01/16 08:38:47;;;;;;;18.90;14.67;;;2.50;99.90;;;;;;5008455;28;20209;-75
2021/01/16 08:41:22;;;;;;;18.40;12.63;;;3.10;99.90;;;;;;5011999;28;20212;-74
2021/01/16 08:43:55;;;;;;;20.33;14.63;;;3.50;99.90;;;;;;5019258;28;20260;-74
2021/01/16 08:46:26;;;;;;;20.27;14.67;;;4.30;99.90;;;;;;5012762;28;20208;-75
2021/01/16 08:49:01;;;;;;;19.00;12.93;;;5.00;99.90;;;;;;5021572;28;20203;-77
2021/01/16 08:51:33;;;;;;;19.67;14.63;;;4.80;99.90;;;;;;5012420;28;20281;-79
2021/01/16 08:54:16;;;;;;;21.67;14.70;;;5.50;99.90;;;;;;5012989;28;20205;-76
2021/01/16 08:56:45;;;;;;;22.37;12.77;;;5.60;99.90;;;;;;5010268;28;20715;-77
2021/01/16 08:59:21;;;;;;;15.90;12.43;;;6.20;99.90;;;;;;5011913;28;20212;-76
2021/01/16 09:01:49;;;;;;;18.23;12.67;;;7.50;99.90;;;;;;5011361;28;20782;-76
2021/01/16 09:04:20;;;;;;;16.07;11.93;;;8.00;99.90;;;;;;5010570;28;20241;-76
2021/01/16 09:06:47;;;;;;;17.93;14.17;;;8.40;99.90;;;;;;5012082;28;20208;-77
2021/01/16 09:09:23;;;;;;;17.27;13.73;;;7.10;99.90;;;;;;5011895;28;20209;-76
2021/01/16 09:12:06;;;;;;;15.60;13.30;;;6.40;99.90;;;;;;5012146;28;20199;-77
2021/01/16 09:14:34;;;;;;;18.97;14.57;;;6.40;99.90;;;;;;5011980;28;20211;-75
2021/01/16 09:17:16;;;;;;;14.80;12.43;;;5.70;99.90;;;;;;4999822;28;20208;-75
2021/01/16 09:19:42;;;;;;;16.70;14.47;;;4.40;99.90;;;;;;5009866;28;20640;-76
2021/01/16 09:22:23;;;;;;;17.30;13.63;;;3.90;99.90;;;;;;5005734;28;20233;-78
2021/01/16 09:24:50;;;;;;;20.33;13.50;;;4.00;99.90;;;;;;5009160;28;20286;-75
2021/01/16 09:27:24;;;;;;;18.53;12.27;;;5.20;99.90;;;;;;5011441;28;20215;-76
2021/01/16 09:29:51;;;;;;;18.77;14.00;;;6.60;99.90;;;;;;5012227;28;20217;-78
2021/01/16 09:32:35;;;;;;;17.50;13.40;;;8.10;99.90;;;;;;5011294;28;20204;-78
2021/01/16 09:35:05;;;;;;;15.27;12.33;;;8.60;99.90;;;;;;5005895;28;20681;-77
2021/01/16 09:37:35;;;;;;;15.77;12.10;;;8.40;99.90;;;;;;5020483;28;20207;-78
2021/01/16 09:40:08;;;;;;;19.17;12.77;;;9.30;99.90;;;;;;5018592;28;20208;-78
2021/01/16 09:42:45;;;;;;;14.00;11.33;;;10.80;99.90;;;;;;5006939;28;20235;-76
2021/01/16 09:45:14;;;;;;;12.53;11.20;;;11.90;99.90;;;;;;5011487;28;20555;-78
2021/01/16 09:47:55;;;;;;;16.30;11.47;;;13.10;99.90;;;;;;5011110;28;20668;-78
2021/01/16 09:50:27;;;;;;;14.50;12.37;;;11.60;99.90;;;;;;5010791;28;20215;-77
2021/01/16 09:52:56;;;;;;;14.40;11.73;;;9.00;99.90;;;;;;5010592;28;20203;-78
2021/01/16 09:55:26;;;;;;;16.30;11.87;;;7.60;99.90;;;;;;5011381;28;20266;-75
2021/01/16 09:57:53;;;;;;;13.93;11.27;;;8.90;99.90;;;;;;5010988;28;20215;-76
2021/01/16 10:00:28;;;;;;;14.63;11.40;;;11.90;99.90;;;;;;5011633;28;20207;-78
2021/01/16 10:03:01;;;;;;;13.87;10.00;;;13.30;99.90;;;;;;5009433;28;20242;-75
2021/01/16 10:05:29;;;;;;;17.90;12.30;;;13.50;99.90;;;;;;5011200;28;20208;-77
2021/01/16 10:07:56;;;;;;;16.47;13.10;;;12.50;99.90;;;;;;5010402;28;20208;-80
2021/01/16 10:10:22;;;;;;;12.37;10.17;;;12.60;99.90;;;;;;5007072;28;20216;-80
2021/01/16 10:12:49;;;;;;;16.03;11.43;;;13.90;99.90;;;;;;5007566;28;20212;-77
2021/01/16 10:15:18;;;;;;;12.87;11.53;;;14.20;99.90;;;;;;5010677;28;20208;-76
2021/01/16 10:17:47;;;;;;;12.30;11.00;;;15.00;99.90;;;;;;5008336;28;20215;-77
2021/01/16 10:20:16;;;;;;;19.42;11.68;;;14.90;99.90;;;;;;5009926;28;20216;-74
2021/01/16 10:22:47;;;;;;;14.57;11.27;;;15.10;99.90;;;;;;5010438;28;20871;-74
2021/01/16 10:25:15;;;;;;;12.65;10.55;;;15.40;99.90;;;;;;5013578;28;20204;-72
2021/01/16 10:27:44;;;;;;;9.95;8.95;;;14.80;99.90;;;;;;5010143;28;20218;-74
2021/01/16 10:30:16;;;;;;;10.90;9.90;;;13.20;99.90;;;;;;5010787;28;20242;-82
2021/01/16 10:32:43;;;;;;;13.00;10.57;;;11.80;99.90;;;;;;5010954;28;20688;-80
2021/01/16 10:35:18;;;;;;;13.57;11.17;;;8.80;99.90;;;;;;5006653;28;20208;-75
2021/01/16 10:37:45;;;;;;;11.83;8.83;;;7.20;99.90;;;;;;4999820;28;20581;-76
2021/01/16 10:40:13;;;;;;;11.40;8.03;;;6.60;99.90;;;;;;5009913;28;20212;-76
2021/01/16 10:42:44;;;;;;;12.70;9.00;;;6.10;99.90;;;;;;5009532;28;20329;-75
2021/01/16 10:45:12;;;;;;;13.63;9.57;;;6.20;99.90;;;;;;5010438;28;20201;-76
2021/01/16 10:47:40;;;;;;;12.03;9.40;;;6.20;99.90;;;;;;5006318;28;20231;-77
2021/01/16 10:50:11;;;;;;;13.23;9.93;;;6.30;99.90;;;;;;5009908;28;20215;-76
2021/01/16 10:52:38;;;;;;;12.60;9.10;;;6.50;99.90;;;;;;5008761;28;20218;-76
2021/01/16 10:55:06;;;;;;;13.50;9.57;;;6.40;99.90;;;;;;4999631;28;20671;-75
2021/01/16 10:57:47;;;;;;;10.27;8.53;;;6.10;99.90;;;;;;5010133;28;20216;-76
2021/01/16 11:00:17;;;;;;;11.63;8.17;;;6.70;99.90;;;;;;5010846;28;20216;-77
2021/01/16 11:02:44;;;;;;;13.47;9.80;;;6.40;99.90;;;;;;5025711;28;20239;-76
2021/01/16 11:05:34;;;;;;;11.87;8.97;;;5.90;99.90;;;;;;5014165;28;20207;-76
2021/01/16 11:08:12;;;;;;;11.23;9.73;;;6.10;99.90;;;;;;5012699;28;20605;-77
2021/01/16 11:10:39;;;;;;;10.70;8.67;;;6.50;99.90;;;;;;5014069;28;20211;-75
2021/01/16 11:13:22;;;;;;;12.07;8.90;;;6.20;99.90;;;;;;5016070;28;20211;-75
2021/01/16 11:15:52;;;;;;;11.77;7.03;;;5.90;99.90;;;;;;5015594;28;20200;-75
2021/01/16 11:18:28;;;;;;;10.20;7.77;;;6.00;99.90;;;;;;5012833;28;20208;-74
2021/01/16 11:21:00;;;;;;;10.00;8.27;;;6.10;99.90;;;;;;5014132;28;20633;-75
2021/01/16 11:23:31;;;;;;;11.17;9.13;;;6.20;99.90;;;;;;5015691;28;20616;-74
2021/01/16 11:26:05;;;;;;;9.63;7.90;;;6.00;99.90;;;;;;5020078;28;20743;-75
2021/01/16 11:28:48;;;;;;;9.93;8.03;;;5.90;99.90;;;;;;5013953;28;20208;-75
2021/01/16 11:31:28;;;;;;;10.53;8.30;;;6.00;99.90;;;;;;5008965;28;20213;-75
2021/01/16 11:34:21;;;;;;;11.10;8.40;;;6.20;99.90;;;;;;5003286;28;20691;-74
2021/01/16 11:36:57;;;;;;;11.33;7.43;;;6.30;99.90;;;;;;4996662;28;20201;-74
2021/01/16 11:39:49;;;;;;;8.37;7.17;;;6.40;99.90;;;;;;5014078;28;20203;-74
2021/01/16 11:42:17;;;;;;;11.40;7.93;;;6.60;99.90;;;;;;5010503;28;20659;-74
2021/01/16 11:44:51;;;;;;;9.60;6.23;;;6.60;99.90;;;;;;5013426;28;20220;-74
2021/01/16 11:47:18;;;;;;;12.47;7.33;;;6.40;99.90;;;;;;5013271;28;20216;-74
2021/01/16 11:49:45;;;;;;;13.80;8.43;;;6.30;99.90;;;;;;5013896;28;20212;-74
2021/01/16 11:52:12;;;;;;;8.13;6.67;;;6.50;99.90;;;;;;5013304;28;20219;-74
2021/01/16 11:54:39;;;;;;;7.23;6.30;;;6.70;99.90;;;;;;5013531;28;20215;-75
2021/01/16 11:57:09;;;;;;;8.50;6.47;;;6.90;99.90;;;;;;5012860;28;20242;-75
2021/01/16 11:59:35;;;;;;;10.70;6.90;;;7.00;99.90;;;;;;5013079;28;20576;-75
2021/01/16 12:02:03;;;;;;;8.93;5.60;;;7.20;99.90;;;;;;5012901;28;20774;-76
2021/01/16 12:04:30;;;;;;;6.97;5.10;;;7.40;99.90;;;;;;5013346;28;20208;-75
2021/01/16 12:06:59;;;;;;;9.93;6.33;;;7.60;99.90;;;;;;5013156;28;20244;-75
2021/01/16 12:09:28;;;;;;;8.03;5.70;;;7.80;99.90;;;;;;5013189;28;20642;-75
2021/01/16 12:11:57;;;;;;;5.87;5.17;;;8.10;99.90;;;;;;5012380;28;20218;-76
2021/01/16 12:14:34;;;;;;;9.00;5.60;;;8.60;99.90;;;;;;5008743;28;20215;-75
2021/01/16 12:17:08;;;;;;;6.27;5.43;;;8.60;99.90;;;;;;5003768;28;20200;-75
2021/01/16 12:19:35;;;;;;;7.87;5.60;;;8.50;99.90;;;;;;5012926;28;20208;-74
2021/01/16 12:22:07;;;;;;;8.87;6.23;;;8.50;99.90;;;;;;5012777;28;20353;-73
2021/01/16 12:24:34;;;;;;;6.87;5.03;;;8.30;99.90;;;;;;5012828;28;20208;-73
2021/01/16 12:27:02;;;;;;;8.73;6.13;;;8.00;99.90;;;;;;5012761;28;20258;-74
2021/01/16 12:29:38;;;;;;;7.17;5.63;;;7.90;99.90;;;;;;5012914;28;20210;-74
2021/01/16 12:32:07;;;;;;;7.10;5.57;;;7.90;99.90;;;;;;5012292;28;20217;-75
2021/01/16 12:34:33;;;;;;;6.77;6.07;;;8.20;99.90;;;;;;5012673;28;20672;-74
2021/01/16 12:37:00;;;;;;;8.80;6.53;;;8.50;99.90;;;;;;5012105;28;20211;-74
2021/01/16 12:39:28;;;;;;;7.93;6.73;;;8.50;99.90;;;;;;5012880;28;20675;-75
2021/01/16 12:41:59;;;;;;;9.30;5.47;;;8.10;99.90;;;;;;5012458;28;20235;-73
2021/01/16 12:44:26;;;;;;;8.70;6.23;;;8.00;99.90;;;;;;5012696;28;20208;-73
2021/01/16 12:46:52;;;;;;;6.53;5.50;;;8.00;99.90;;;;;;5012876;28;20270;-74
2021/01/16 12:49:20;;;;;;;8.90;6.00;;;8.20;99.90;;;;;;5012427;28;20279;-73
2021/01/16 12:51:48;;;;;;;7.50;5.83;;;8.40;99.90;;;;;;5012633;28;20212;-75
2021/01/16 12:54:16;;;;;;;7.40;6.37;;;8.20;99.90;;;;;;5011631;28;20714;-75
2021/01/16 12:56:43;;;;;;;9.27;6.67;;;8.10;99.90;;;;;;5012300;28;20208;-74
2021/01/16 12:59:15;;;;;;;7.17;6.27;;;8.30;99.90;;;;;;5011897;28;20235;-76